createdAt,value
2023-01-18T00:00:20.444Z,3.00
2023-01-18T00:00:43.169Z,3.00
2023-01-18T00:01:07.303Z,3.10
2023-01-18T00:01:30.454Z,3.10
2023-01-18T00:01:53.344Z,3.10
2023-01-18T00:02:16.058Z,3.10
2023-01-18T00:02:38.825Z,3.10
2023-01-18T00:03:02.953Z,3.00
2023-01-18T00:03:25.705Z,3.00
2023-01-18T00:03:48.433Z,3.00
2023-01-18T00:04:11.029Z,3.00
2023-01-18T00:04:33.796Z,3.00
2023-01-18T00:04:56.507Z,3.00
2023-01-18T00:05:19.844Z,2.90
2023-01-18T00:05:42.765Z,3.00
2023-01-18T00:06:10.130Z,3.00
2023-01-18T00:06:32.809Z,3.00
2023-01-18T00:06:57.505Z,3.00
2023-01-18T00:07:20.249Z,3.00
2023-01-18T00:07:42.983Z,2.90
2023-01-18T00:08:06.149Z,2.90
2023-01-18T00:08:29.736Z,2.90
2023-01-18T00:08:54.399Z,2.90
2023-01-18T00:09:17.128Z,2.90
2023-01-18T00:09:39.843Z,3.00
2023-01-18T00:10:02.614Z,2.90
2023-01-18T00:10:25.374Z,2.90
2023-01-18T00:10:48.039Z,3.00
2023-01-18T00:11:12.023Z,2.90
2023-01-18T00:11:34.729Z,2.90
2023-01-18T00:11:57.455Z,3.00
2023-01-18T00:12:20.393Z,2.90
2023-01-18T00:12:45.573Z,2.90
2023-01-18T00:13:08.370Z,2.90
2023-01-18T00:13:31.087Z,2.90
2023-01-18T00:13:54.444Z,2.90
2023-01-18T00:14:19.594Z,2.90
2023-01-18T00:14:42.340Z,2.90
2023-01-18T00:15:06.268Z,2.90
2023-01-18T00:15:28.974Z,2.80
2023-01-18T00:15:51.849Z,2.80
2023-01-18T00:16:15.492Z,2.80
2023-01-18T00:16:39.763Z,2.80
2023-01-18T00:17:02.452Z,2.80
2023-01-18T00:17:25.132Z,2.80
2023-01-18T00:17:51.833Z,2.80
2023-01-18T00:18:16.051Z,2.80
2023-01-18T00:18:38.844Z,2.80
2023-01-18T00:19:01.625Z,2.80
2023-01-18T00:19:24.323Z,2.80
2023-01-18T00:19:47.019Z,2.80
2023-01-18T00:20:11.767Z,2.80
2023-01-18T00:20:34.559Z,2.90
2023-01-18T00:21:01.298Z,2.80
2023-01-18T00:21:24.363Z,2.80
2023-01-18T00:21:47.119Z,2.80
2023-01-18T00:22:09.775Z,2.80
2023-01-18T00:22:32.428Z,2.80
2023-01-18T00:22:57.720Z,2.80
2023-01-18T00:23:20.846Z,2.90
2023-01-18T00:23:43.585Z,2.90
2023-01-18T00:24:11.104Z,2.90
2023-01-18T00:24:36.368Z,2.90
2023-01-18T00:24:59.034Z,2.90
2023-01-18T00:25:26.563Z,2.90
2023-01-18T00:25:49.188Z,2.90
2023-01-18T00:26:12.446Z,2.90
2023-01-18T00:26:35.154Z,2.90
2023-01-18T00:26:57.851Z,2.90
2023-01-18T00:27:21.278Z,3.00
2023-01-18T00:27:46.925Z,2.90
2023-01-18T00:28:09.675Z,3.00
2023-01-18T00:28:33.588Z,3.00
2023-01-18T00:28:57.510Z,3.00
2023-01-18T00:29:20.343Z,3.00
2023-01-18T00:29:43.020Z,3.00
2023-01-18T00:30:07.687Z,3.00
2023-01-18T00:30:30.455Z,3.00
2023-01-18T00:30:53.194Z,3.00
2023-01-18T00:31:16.876Z,3.00
2023-01-18T00:31:40.445Z,2.90
2023-01-18T00:32:03.359Z,2.90
2023-01-18T00:32:26.061Z,2.90
2023-01-18T00:32:48.806Z,2.90
2023-01-18T00:33:11.634Z,2.90
2023-01-18T00:33:35.819Z,2.90
2023-01-18T00:33:58.569Z,2.90
2023-01-18T00:34:21.300Z,2.90
2023-01-18T00:34:44.013Z,2.90
2023-01-18T00:35:08.340Z,2.90
2023-01-18T00:35:32.393Z,2.90
2023-01-18T00:35:56.993Z,2.90
2023-01-18T00:36:19.710Z,3.00
2023-01-18T00:36:42.685Z,3.00
2023-01-18T00:37:06.466Z,3.00
2023-01-18T00:37:29.121Z,2.90
2023-01-18T00:37:52.239Z,3.00
2023-01-18T00:38:14.949Z,2.90
2023-01-18T00:38:37.629Z,2.90
2023-01-18T00:39:00.400Z,2.90
2023-01-18T00:39:23.185Z,2.90
2023-01-18T00:39:45.925Z,2.90
2023-01-18T00:40:10.105Z,2.90
2023-01-18T00:40:32.799Z,2.90
2023-01-18T00:40:55.560Z,2.80
2023-01-18T00:41:18.270Z,2.90
2023-01-18T00:42:00.854Z,2.90
2023-01-18T00:42:42.194Z,2.90
2023-01-18T00:43:20.430Z,2.90
2023-01-18T00:43:43.348Z,3.00
2023-01-18T00:44:07.115Z,3.00
2023-01-18T00:44:29.812Z,3.00
2023-01-18T00:44:52.653Z,3.00
2023-01-18T00:45:15.628Z,3.00
2023-01-18T00:45:38.424Z,3.00
2023-01-18T00:46:01.233Z,3.00
2023-01-18T00:46:24.658Z,3.00
2023-01-18T00:46:50.118Z,3.00
2023-01-18T00:47:13.633Z,3.00
2023-01-18T00:47:36.334Z,3.10
2023-01-18T00:47:59.076Z,3.10
2023-01-18T00:48:21.922Z,3.10
2023-01-18T00:48:46.087Z,3.20
2023-01-18T00:49:08.926Z,3.10
2023-01-18T00:49:32.030Z,3.10
2023-01-18T00:49:54.713Z,3.20
2023-01-18T00:50:19.731Z,3.10
2023-01-18T00:50:42.451Z,3.10
2023-01-18T00:51:05.879Z,3.10
2023-01-18T00:51:28.657Z,3.10
2023-01-18T00:51:52.251Z,3.10
2023-01-18T00:52:14.975Z,3.10
2023-01-18T00:52:38.563Z,3.10
2023-01-18T00:53:01.302Z,3.10
2023-01-18T00:53:24.043Z,3.10
2023-01-18T00:53:47.690Z,3.00
2023-01-18T00:54:10.471Z,3.00
2023-01-18T00:54:33.179Z,3.00
2023-01-18T00:54:55.919Z,3.00
2023-01-18T00:55:18.663Z,2.90
2023-01-18T00:55:41.388Z,2.90
2023-01-18T00:56:05.036Z,2.80
2023-01-18T00:56:28.823Z,2.80
2023-01-18T00:56:51.489Z,2.80
2023-01-18T00:57:14.127Z,2.80
2023-01-18T00:57:36.868Z,2.80
2023-01-18T00:57:59.623Z,2.70
2023-01-18T00:58:22.683Z,2.70
2023-01-18T00:58:46.563Z,2.70
2023-01-18T00:59:09.493Z,2.70
2023-01-18T00:59:32.301Z,2.60
2023-01-18T00:59:54.999Z,2.70
2023-01-18T01:00:20.645Z,2.70
2023-01-18T01:00:43.454Z,2.70
2023-01-18T01:01:06.617Z,2.70
2023-01-18T01:01:29.557Z,2.70
2023-01-18T01:01:52.611Z,2.70
2023-01-18T01:02:18.126Z,2.70
2023-01-18T01:02:41.217Z,2.60
2023-01-18T01:03:04.010Z,2.70
2023-01-18T01:03:26.811Z,2.60
2023-01-18T01:04:09.779Z,2.60
2023-01-18T01:04:51.439Z,2.60
2023-01-18T01:05:37.389Z,2.60
2023-01-18T01:06:19.504Z,2.60
2023-01-18T01:06:45.755Z,2.50
2023-01-18T01:07:08.870Z,2.40
2023-01-18T01:07:31.669Z,2.40
2023-01-18T01:07:54.399Z,2.30
2023-01-18T01:08:17.792Z,2.30
2023-01-18T01:08:40.554Z,2.30
2023-01-18T01:09:03.350Z,2.20
2023-01-18T01:09:26.770Z,2.20
2023-01-18T01:09:49.441Z,2.10
2023-01-18T01:10:12.167Z,2.10
2023-01-18T01:10:35.672Z,2.10
2023-01-18T01:11:05.910Z,2.10
2023-01-18T01:11:28.538Z,2.10
2023-01-18T01:12:09.756Z,2.10
2023-01-18T01:12:51.013Z,2.10
2023-01-18T01:13:32.660Z,2.10
2023-01-18T01:14:14.025Z,2.10
2023-01-18T01:14:58.014Z,2.10
2023-01-18T01:15:39.059Z,2.10
2023-01-18T01:16:23.891Z,2.00
2023-01-18T01:17:05.363Z,2.00
2023-01-18T01:17:47.621Z,2.00
2023-01-18T01:18:31.973Z,1.90
2023-01-18T01:19:14.740Z,2.00
2023-01-18T01:19:56.220Z,2.00
2023-01-18T01:20:37.773Z,2.00
2023-01-18T01:21:22.671Z,2.00
2023-01-18T01:22:04.189Z,2.00
2023-01-18T01:22:45.411Z,2.00
2023-01-18T01:23:28.054Z,2.00
2023-01-18T01:24:12.240Z,1.90
2023-01-18T01:24:53.880Z,1.90
2023-01-18T01:25:35.329Z,1.90
2023-01-18T01:26:08.016Z,1.90
2023-01-18T01:26:30.889Z,1.90
2023-01-18T01:26:53.528Z,1.90
2023-01-18T01:27:17.634Z,1.90
2023-01-18T01:27:40.638Z,2.00
2023-01-18T01:28:03.415Z,2.00
2023-01-18T01:28:26.145Z,2.00
2023-01-18T01:28:51.140Z,2.00
2023-01-18T01:29:13.927Z,2.00
2023-01-18T01:29:36.674Z,2.00
2023-01-18T01:30:01.570Z,2.10
2023-01-18T01:30:25.117Z,2.10
2023-01-18T01:30:48.009Z,2.10
2023-01-18T01:31:13.444Z,2.10
2023-01-18T01:31:36.151Z,2.10
2023-01-18T01:31:58.896Z,2.10
2023-01-18T01:32:21.852Z,2.10
2023-01-18T01:32:45.288Z,2.10
2023-01-18T01:33:08.071Z,2.10
2023-01-18T01:33:30.938Z,2.10
2023-01-18T01:33:55.109Z,2.10
2023-01-18T01:34:18.031Z,2.10
2023-01-18T01:34:40.748Z,2.10
2023-01-18T01:35:03.709Z,2.10
2023-01-18T01:35:26.335Z,2.10
2023-01-18T01:35:50.288Z,2.10
2023-01-18T01:36:14.096Z,2.10
2023-01-18T01:36:36.928Z,2.10
2023-01-18T01:37:02.055Z,2.10
2023-01-18T01:37:24.884Z,2.00
2023-01-18T01:37:47.613Z,2.00
2023-01-18T01:38:10.514Z,2.00
2023-01-18T01:38:35.464Z,2.00
2023-01-18T01:38:58.118Z,2.00
2023-01-18T01:39:20.838Z,2.00
2023-01-18T01:39:46.363Z,2.00
2023-01-18T01:40:11.334Z,2.00
2023-01-18T01:40:34.063Z,2.00
2023-01-18T01:40:58.094Z,2.00
2023-01-18T01:41:25.634Z,2.00
2023-01-18T01:41:49.189Z,2.00
2023-01-18T01:42:12.011Z,2.10
2023-01-18T01:42:34.706Z,2.10
2023-01-18T01:42:58.016Z,2.00
2023-01-18T01:43:37.439Z,2.10
2023-01-18T01:44:00.810Z,2.10
2023-01-18T01:44:50.282Z,2.10
2023-01-18T01:45:13.388Z,2.20
2023-01-18T01:45:36.093Z,2.20
2023-01-18T01:45:58.995Z,2.20
2023-01-18T01:46:26.760Z,2.20
2023-01-18T01:46:50.887Z,2.20
2023-01-18T01:47:16.515Z,2.10
2023-01-18T01:47:39.949Z,2.10
2023-01-18T01:48:02.701Z,2.10
2023-01-18T01:48:25.455Z,2.10
2023-01-18T01:48:48.432Z,2.10
2023-01-18T01:49:14.575Z,2.10
2023-01-18T01:49:40.339Z,2.10
2023-01-18T01:50:08.218Z,2.10
2023-01-18T01:50:33.444Z,2.10
2023-01-18T01:50:56.159Z,2.10
2023-01-18T01:51:19.963Z,2.00
2023-01-18T01:51:43.753Z,2.10
2023-01-18T01:52:07.214Z,2.10
2023-01-18T01:52:32.846Z,2.00
2023-01-18T01:52:55.883Z,2.00
2023-01-18T01:53:18.991Z,2.00
2023-01-18T01:53:41.669Z,2.00
2023-01-18T01:54:06.600Z,2.00
2023-01-18T01:54:30.687Z,2.00
2023-01-18T01:54:54.733Z,2.00
2023-01-18T01:55:21.503Z,2.00
2023-01-18T01:55:44.305Z,2.00
2023-01-18T01:56:08.822Z,2.00
2023-01-18T01:56:31.534Z,2.00
2023-01-18T01:56:56.300Z,1.90
2023-01-18T01:57:20.030Z,2.00
2023-01-18T01:57:44.325Z,2.00
2023-01-18T01:58:08.063Z,2.00
2023-01-18T01:58:30.963Z,2.00
2023-01-18T01:58:55.249Z,2.00
2023-01-18T01:59:18.910Z,2.10
2023-01-18T01:59:43.054Z,2.10
2023-01-18T02:00:07.228Z,2.10
2023-01-18T02:00:29.906Z,2.10
2023-01-18T02:00:54.336Z,2.10
2023-01-18T02:01:17.727Z,2.20
2023-01-18T02:01:43.963Z,2.20
2023-01-18T02:02:07.197Z,2.20
2023-01-18T02:02:30.612Z,2.20
2023-01-18T02:02:55.074Z,2.20
2023-01-18T02:03:21.107Z,2.20
2023-01-18T02:03:45.140Z,2.20
2023-01-18T02:04:07.943Z,2.20
2023-01-18T02:04:32.049Z,2.20
2023-01-18T02:04:55.549Z,2.20
2023-01-18T02:05:18.388Z,2.20
2023-01-18T02:05:42.482Z,2.20
2023-01-18T02:06:08.934Z,2.30
2023-01-18T02:06:34.239Z,2.30
2023-01-18T02:06:56.954Z,2.30
2023-01-18T02:07:20.503Z,2.30
2023-01-18T02:07:43.233Z,2.30
2023-01-18T02:08:11.377Z,2.30
2023-01-18T02:08:34.082Z,2.30
2023-01-18T02:08:57.438Z,2.30
2023-01-18T02:09:23.432Z,2.30
2023-01-18T02:09:46.194Z,2.30
2023-01-18T02:10:10.360Z,2.30
2023-01-18T02:10:33.131Z,2.30
2023-01-18T02:10:59.060Z,2.30
2023-01-18T02:11:21.783Z,2.40
2023-01-18T02:11:44.544Z,2.30
2023-01-18T02:12:07.365Z,2.40
2023-01-18T02:12:30.177Z,2.30
2023-01-18T02:12:54.896Z,2.40
2023-01-18T02:13:18.331Z,2.40
2023-01-18T02:13:41.043Z,2.40
2023-01-18T02:14:04.486Z,2.50
2023-01-18T02:14:27.275Z,2.50
2023-01-18T02:14:50.034Z,2.50
2023-01-18T02:15:12.977Z,2.60
2023-01-18T02:15:40.523Z,2.60
2023-01-18T02:16:06.446Z,2.60
2023-01-18T02:16:48.060Z,2.60
2023-01-18T02:17:19.363Z,2.70
2023-01-18T02:17:54.085Z,2.70
2023-01-18T02:18:22.920Z,2.70
2023-01-18T02:18:49.623Z,2.70
2023-01-18T02:19:20.493Z,2.80
2023-01-18T02:20:10.993Z,2.70
2023-01-18T02:21:08.980Z,2.70
2023-01-18T02:21:33.215Z,2.80
2023-01-18T02:21:57.124Z,2.80
2023-01-18T02:22:27.228Z,2.80
2023-01-18T02:23:08.061Z,2.80
2023-01-18T02:23:36.273Z,2.80
2023-01-18T02:24:24.693Z,2.80
2023-01-18T02:25:01.213Z,2.70
2023-01-18T02:25:40.574Z,2.70
2023-01-18T02:26:43.998Z,2.70
2023-01-18T02:27:06.803Z,2.60
2023-01-18T02:27:31.868Z,2.60
2023-01-18T02:28:06.928Z,2.60
2023-01-18T02:28:31.054Z,2.60
2023-01-18T02:28:56.310Z,2.60
2023-01-18T02:29:21.359Z,2.60
2023-01-18T02:30:03.262Z,2.60
2023-01-18T02:30:27.224Z,2.50
2023-01-18T02:30:51.216Z,2.50
2023-01-18T02:31:15.246Z,2.50
2023-01-18T02:31:41.274Z,2.50
2023-01-18T02:32:11.206Z,2.50
2023-01-18T02:32:44.648Z,2.50
2023-01-18T02:33:09.116Z,2.50
2023-01-18T02:33:33.128Z,2.50
2023-01-18T02:33:57.913Z,2.50
2023-01-18T02:34:25.927Z,2.50
2023-01-18T02:34:50.723Z,2.50
2023-01-18T02:35:15.586Z,2.50
2023-01-18T02:35:44.338Z,2.50
2023-01-18T02:36:07.215Z,2.50
2023-01-18T02:36:32.158Z,2.50
2023-01-18T02:37:00.147Z,2.50
2023-01-18T02:37:29.293Z,2.50
2023-01-18T02:37:57.489Z,2.50
2023-01-18T02:38:22.318Z,2.50
2023-01-18T02:38:45.776Z,2.50
2023-01-18T02:39:13.289Z,2.60
2023-01-18T02:39:39.843Z,2.60
2023-01-18T02:40:09.119Z,2.60
2023-01-18T02:40:34.348Z,2.60
2023-01-18T02:41:05.439Z,2.60
2023-01-18T02:41:50.579Z,2.60
2023-01-18T02:42:38.255Z,2.60
2023-01-18T02:43:20.079Z,2.70
2023-01-18T02:44:00.124Z,2.80
2023-01-18T02:44:44.153Z,2.80
2023-01-18T02:45:28.201Z,2.80
2023-01-18T02:46:09.218Z,2.80
2023-01-18T02:46:34.313Z,2.80
2023-01-18T02:46:57.147Z,2.70
2023-01-18T02:47:19.879Z,2.80
2023-01-18T02:47:43.252Z,2.80
2023-01-18T02:48:06.341Z,2.70
2023-01-18T02:48:32.398Z,2.70
2023-01-18T02:48:56.210Z,2.70
2023-01-18T02:49:21.037Z,2.80
2023-01-18T02:49:43.820Z,2.80
2023-01-18T02:50:07.127Z,2.80
2023-01-18T02:50:30.045Z,2.90
2023-01-18T02:50:52.773Z,2.90
2023-01-18T02:51:15.647Z,2.90
2023-01-18T02:51:38.513Z,2.90
2023-01-18T02:52:02.108Z,2.90
2023-01-18T02:52:41.083Z,2.80
2023-01-18T02:53:03.836Z,2.80
2023-01-18T02:53:26.554Z,2.80
2023-01-18T02:53:49.323Z,2.80
2023-01-18T02:54:13.230Z,2.80
2023-01-18T02:54:36.817Z,2.80
2023-01-18T02:54:59.553Z,2.80
2023-01-18T02:55:28.649Z,2.70
2023-01-18T02:55:53.216Z,2.70
2023-01-18T02:56:17.451Z,2.70
2023-01-18T02:56:41.607Z,2.80
2023-01-18T02:57:06.223Z,2.70
2023-01-18T02:57:28.944Z,2.70
2023-01-18T02:57:52.793Z,2.80
2023-01-18T02:58:19.289Z,2.80
2023-01-18T02:58:44.839Z,2.80
2023-01-18T02:59:10.262Z,2.80
2023-01-18T02:59:35.049Z,2.70
2023-01-18T02:59:57.749Z,2.80
2023-01-18T03:00:23.483Z,2.80
2023-01-18T03:00:49.113Z,2.80
2023-01-18T03:01:15.432Z,2.80
2023-01-18T03:01:41.659Z,2.80
2023-01-18T03:02:06.035Z,2.70
2023-01-18T03:02:28.963Z,2.80
2023-01-18T03:02:51.683Z,2.80
2023-01-18T03:03:14.424Z,2.80
2023-01-18T03:03:37.113Z,2.80
2023-01-18T03:04:01.608Z,2.80
2023-01-18T03:04:26.548Z,2.80
2023-01-18T03:04:55.876Z,2.80
2023-01-18T03:05:19.149Z,2.90
2023-01-18T03:05:41.883Z,2.90
2023-01-18T03:06:05.766Z,2.90
2023-01-18T03:06:29.069Z,2.90
2023-01-18T03:06:53.623Z,2.90
2023-01-18T03:07:18.090Z,3.00
2023-01-18T03:07:43.423Z,3.00
2023-01-18T03:08:09.608Z,3.00
2023-01-18T03:08:36.423Z,3.00
2023-01-18T03:08:59.429Z,3.00
2023-01-18T03:09:27.357Z,2.90
2023-01-18T03:09:50.328Z,2.90
2023-01-18T03:10:14.014Z,2.90
2023-01-18T03:10:39.648Z,2.90
2023-01-18T03:11:04.156Z,2.90
2023-01-18T03:11:33.149Z,2.90
2023-01-18T03:11:59.213Z,2.90
2023-01-18T03:12:25.023Z,2.90
2023-01-18T03:12:51.204Z,2.90
2023-01-18T03:13:16.174Z,2.90
2023-01-18T03:13:57.625Z,2.90
2023-01-18T03:14:22.884Z,3.00
2023-01-18T03:14:50.248Z,3.00
2023-01-18T03:15:14.107Z,2.90
2023-01-18T03:15:39.968Z,2.90
2023-01-18T03:16:06.422Z,3.00
2023-01-18T03:16:39.776Z,2.90
2023-01-18T03:17:05.910Z,2.90
2023-01-18T03:17:31.933Z,2.90
2023-01-18T03:17:57.463Z,3.00
2023-01-18T03:18:22.788Z,3.00
2023-01-18T03:19:04.280Z,3.00
2023-01-18T03:19:52.488Z,3.00
2023-01-18T03:20:16.218Z,3.00
2023-01-18T03:20:41.453Z,3.00
2023-01-18T03:21:05.785Z,3.00
2023-01-18T03:21:41.122Z,3.00
2023-01-18T03:22:04.377Z,3.00
2023-01-18T03:22:47.821Z,3.00
2023-01-18T03:23:30.157Z,3.10
2023-01-18T03:23:52.849Z,3.00
2023-01-18T03:24:15.988Z,3.00
2023-01-18T03:24:41.470Z,3.00
2023-01-18T03:25:04.526Z,3.00
2023-01-18T03:25:29.481Z,3.00
2023-01-18T03:25:55.053Z,3.00
2023-01-18T03:26:19.049Z,3.00
2023-01-18T03:26:43.244Z,3.00
2023-01-18T03:27:24.275Z,3.10
2023-01-18T03:28:06.260Z,3.10
2023-01-18T03:28:49.151Z,3.10
2023-01-18T03:29:31.876Z,3.00
2023-01-18T03:30:13.545Z,3.00
2023-01-18T03:30:54.888Z,2.90
2023-01-18T03:31:37.187Z,3.00
2023-01-18T03:32:20.351Z,2.90
2023-01-18T03:33:01.488Z,2.90
2023-01-18T03:33:43.533Z,2.90
2023-01-18T03:34:10.107Z,2.80
2023-01-18T03:34:34.965Z,2.70
2023-01-18T03:34:59.336Z,2.70
2023-01-18T03:35:26.956Z,2.70
2023-01-18T03:35:49.788Z,2.70
2023-01-18T03:36:16.982Z,2.70
2023-01-18T03:36:41.314Z,2.70
2023-01-18T03:37:05.359Z,2.70
2023-01-18T03:37:29.733Z,2.60
2023-01-18T03:37:54.424Z,2.60
2023-01-18T03:38:17.133Z,2.60
2023-01-18T03:38:40.439Z,2.60
2023-01-18T03:39:05.477Z,2.50
2023-01-18T03:39:30.829Z,2.60
2023-01-18T03:39:54.993Z,2.50
2023-01-18T03:40:18.653Z,2.50
2023-01-18T03:40:41.453Z,2.50
2023-01-18T03:41:04.270Z,2.50
2023-01-18T03:41:29.588Z,2.50
2023-01-18T03:41:54.506Z,2.50
2023-01-18T03:42:20.595Z,2.40
2023-01-18T03:42:45.493Z,2.40
2023-01-18T03:43:10.802Z,2.40
2023-01-18T03:43:36.583Z,2.30
2023-01-18T03:44:02.232Z,2.40
2023-01-18T03:44:29.650Z,2.40
2023-01-18T03:44:56.000Z,2.40
2023-01-18T03:45:22.746Z,2.40
2023-01-18T03:45:46.624Z,2.40
2023-01-18T03:46:09.426Z,2.40
2023-01-18T03:46:32.566Z,2.40
2023-01-18T03:46:55.568Z,2.40
2023-01-18T03:47:18.338Z,2.50
2023-01-18T03:47:41.023Z,2.50
2023-01-18T03:48:03.913Z,2.40
2023-01-18T03:48:26.657Z,2.40
2023-01-18T03:48:49.293Z,2.40
2023-01-18T03:49:11.989Z,2.40
2023-01-18T03:49:34.843Z,2.30
2023-01-18T03:49:58.313Z,2.20
2023-01-18T03:50:21.709Z,2.20
2023-01-18T03:50:48.963Z,2.10
2023-01-18T03:51:15.938Z,2.10
2023-01-18T03:51:47.504Z,2.10
2023-01-18T03:52:17.031Z,2.10
2023-01-18T03:52:42.078Z,2.10
2023-01-18T03:53:06.918Z,2.10
2023-01-18T03:53:32.976Z,2.10
2023-01-18T03:53:59.553Z,2.00
2023-01-18T03:54:27.273Z,2.00
2023-01-18T03:54:57.133Z,2.00
2023-01-18T03:55:23.254Z,2.00
2023-01-18T03:55:49.147Z,2.00
2023-01-18T03:56:16.115Z,1.90
2023-01-18T03:56:42.603Z,1.90
2023-01-18T03:57:08.264Z,2.00
2023-01-18T03:57:33.424Z,1.90
2023-01-18T03:57:59.816Z,1.90
2023-01-18T03:58:24.818Z,1.90
2023-01-18T03:58:47.551Z,1.90
2023-01-18T03:59:10.252Z,1.90
2023-01-18T03:59:36.049Z,1.90
2023-01-18T03:59:58.746Z,1.90
2023-01-18T04:00:21.653Z,1.90
2023-01-18T04:00:44.526Z,1.90
2023-01-18T04:01:07.483Z,1.90
2023-01-18T04:01:31.018Z,1.80
2023-01-18T04:01:53.916Z,1.80
2023-01-18T04:02:16.955Z,1.90
2023-01-18T04:02:39.873Z,1.80
2023-01-18T04:03:02.821Z,1.90
2023-01-18T04:03:25.609Z,1.90
2023-01-18T04:03:48.368Z,1.90
2023-01-18T04:04:11.476Z,1.90
2023-01-18T04:04:34.134Z,1.80
2023-01-18T04:04:58.747Z,1.90
2023-01-18T04:05:21.719Z,1.90
2023-01-18T04:05:44.449Z,1.90
2023-01-18T04:06:07.523Z,1.90
2023-01-18T04:06:30.193Z,1.90
2023-01-18T04:06:52.955Z,1.90
2023-01-18T04:07:16.716Z,1.90
2023-01-18T04:07:39.461Z,1.90
2023-01-18T04:08:02.149Z,1.90
2023-01-18T04:08:24.965Z,1.90
2023-01-18T04:08:47.744Z,1.90
2023-01-18T04:09:12.196Z,1.90
2023-01-18T04:09:35.039Z,1.90
2023-01-18T04:09:57.848Z,1.80
2023-01-18T04:10:20.699Z,1.80
2023-01-18T04:10:43.393Z,1.90
2023-01-18T04:11:06.344Z,1.80
2023-01-18T04:11:29.158Z,1.80
2023-01-18T04:11:51.920Z,1.80
2023-01-18T04:12:14.700Z,1.80
2023-01-18T04:12:37.454Z,1.80
2023-01-18T04:13:00.607Z,1.90
2023-01-18T04:13:23.728Z,1.90
2023-01-18T04:13:46.537Z,1.90
2023-01-18T04:14:09.249Z,1.90
2023-01-18T04:14:31.926Z,1.90
2023-01-18T04:14:59.388Z,1.80
2023-01-18T04:15:22.409Z,1.90
2023-01-18T04:15:45.218Z,1.90
2023-01-18T04:16:08.204Z,1.90
2023-01-18T04:16:30.993Z,1.90
2023-01-18T04:16:53.769Z,1.90
2023-01-18T04:17:17.313Z,1.90
2023-01-18T04:17:40.025Z,1.90
2023-01-18T04:18:02.854Z,1.90
2023-01-18T04:18:26.149Z,1.80
2023-01-18T04:18:48.883Z,1.90
2023-01-18T04:19:11.697Z,1.90
2023-01-18T04:19:34.344Z,1.90
2023-01-18T04:19:57.008Z,1.90
2023-01-18T04:20:19.700Z,2.00
2023-01-18T04:20:42.378Z,2.00
2023-01-18T04:21:05.533Z,2.00
2023-01-18T04:21:28.340Z,2.00
2023-01-18T04:21:51.021Z,2.00
2023-01-18T04:22:14.096Z,2.00
2023-01-18T04:22:36.731Z,2.00
2023-01-18T04:22:59.724Z,2.00
2023-01-18T04:23:24.031Z,2.00
2023-01-18T04:23:46.796Z,2.00
2023-01-18T04:24:09.724Z,2.00
2023-01-18T04:24:32.383Z,2.00
2023-01-18T04:24:55.127Z,2.10
2023-01-18T04:25:17.863Z,2.10
2023-01-18T04:25:41.038Z,2.10
2023-01-18T04:26:03.916Z,2.10
2023-01-18T04:26:26.708Z,2.10
2023-01-18T04:26:49.389Z,2.10
2023-01-18T04:27:12.155Z,2.10
2023-01-18T04:27:34.891Z,2.10
2023-01-18T04:27:57.608Z,2.10
2023-01-18T04:28:28.970Z,2.00
2023-01-18T04:28:51.711Z,2.10
2023-01-18T04:29:14.416Z,2.00
2023-01-18T04:29:37.114Z,2.00
2023-01-18T04:30:01.369Z,2.00
2023-01-18T04:30:24.191Z,2.00
2023-01-18T04:30:49.882Z,2.00
2023-01-18T04:31:12.665Z,2.00
2023-01-18T04:31:35.525Z,2.00
2023-01-18T04:31:58.395Z,2.00
2023-01-18T04:32:22.304Z,2.00
2023-01-18T04:32:46.398Z,2.00
2023-01-18T04:33:09.323Z,2.00
2023-01-18T04:33:32.049Z,2.00
2023-01-18T04:33:54.834Z,1.90
2023-01-18T04:34:17.581Z,1.90
2023-01-18T04:34:40.320Z,1.90
2023-01-18T04:35:03.180Z,1.90
2023-01-18T04:35:25.943Z,1.90
2023-01-18T04:35:48.701Z,1.90
2023-01-18T04:36:11.462Z,1.90
2023-01-18T04:36:36.970Z,1.90
2023-01-18T04:36:59.720Z,2.00
2023-01-18T04:37:30.562Z,2.00
2023-01-18T04:37:53.458Z,2.00
2023-01-18T04:38:16.139Z,2.00
2023-01-18T04:38:38.898Z,2.00
2023-01-18T04:39:01.630Z,2.00
2023-01-18T04:39:24.335Z,2.00
2023-01-18T04:39:47.799Z,2.00
2023-01-18T04:40:12.493Z,2.00
2023-01-18T04:40:35.304Z,2.00
2023-01-18T04:41:02.734Z,2.00
2023-01-18T04:41:25.485Z,1.90
2023-01-18T04:41:48.288Z,1.90
2023-01-18T04:42:10.990Z,1.90
2023-01-18T04:42:33.779Z,1.90
2023-01-18T04:42:56.801Z,1.90
2023-01-18T04:43:19.896Z,1.80
2023-01-18T04:43:43.003Z,1.80
2023-01-18T04:44:05.778Z,1.80
2023-01-18T04:44:28.592Z,1.80
2023-01-18T04:44:51.387Z,1.90
2023-01-18T04:45:18.294Z,1.80
2023-01-18T04:45:41.289Z,1.90
2023-01-18T04:46:04.109Z,1.90
2023-01-18T04:46:27.424Z,1.90
2023-01-18T04:46:51.150Z,1.80
2023-01-18T04:47:14.049Z,1.90
2023-01-18T04:47:36.800Z,1.90
2023-01-18T04:48:02.024Z,1.90
2023-01-18T04:48:24.788Z,1.90
2023-01-18T04:48:51.069Z,1.90
2023-01-18T04:49:15.651Z,1.90
2023-01-18T04:49:38.574Z,1.80
2023-01-18T04:50:01.424Z,1.80
2023-01-18T04:50:24.143Z,1.80
2023-01-18T04:50:48.822Z,1.80
2023-01-18T04:51:14.164Z,1.80
2023-01-18T04:51:38.315Z,1.70
2023-01-18T04:52:00.988Z,1.80
2023-01-18T04:52:23.699Z,1.80
2023-01-18T04:52:46.409Z,1.70
2023-01-18T04:53:09.129Z,1.80
2023-01-18T04:53:31.953Z,1.80
2023-01-18T04:53:55.763Z,1.80
2023-01-18T04:54:19.418Z,1.80
2023-01-18T04:54:42.149Z,1.90
2023-01-18T04:55:06.248Z,1.90
2023-01-18T04:55:28.966Z,1.90
2023-01-18T04:55:51.693Z,1.90
2023-01-18T04:56:14.590Z,1.90
2023-01-18T04:56:37.337Z,1.90
2023-01-18T04:57:00.034Z,1.90
2023-01-18T04:57:22.733Z,1.90
2023-01-18T04:57:45.668Z,1.90
2023-01-18T04:58:08.387Z,1.90
2023-01-18T04:58:31.114Z,1.90
2023-01-18T04:58:54.670Z,1.90
2023-01-18T04:59:18.557Z,1.90
2023-01-18T04:59:46.129Z,1.90
2023-01-18T05:00:11.289Z,1.90
2023-01-18T05:00:35.719Z,1.90
2023-01-18T05:01:01.866Z,2.00
2023-01-18T05:01:24.859Z,1.90
2023-01-18T05:01:47.787Z,1.90
2023-01-18T05:02:10.543Z,1.90
2023-01-18T05:02:33.374Z,1.90
2023-01-18T05:02:56.398Z,1.80
2023-01-18T05:03:20.209Z,1.80
2023-01-18T05:03:42.873Z,1.80
2023-01-18T05:04:05.736Z,1.80
2023-01-18T05:04:28.489Z,1.80
2023-01-18T05:04:51.304Z,1.90
2023-01-18T05:05:14.089Z,1.90
2023-01-18T05:05:36.838Z,1.80
2023-01-18T05:05:59.529Z,1.80
2023-01-18T05:06:24.647Z,1.80
2023-01-18T05:06:48.718Z,1.80
2023-01-18T05:07:18.415Z,1.90
2023-01-18T05:07:44.256Z,1.90
2023-01-18T05:08:07.050Z,1.90
2023-01-18T05:08:29.721Z,1.90
2023-01-18T05:08:52.612Z,1.90
2023-01-18T05:09:15.525Z,1.90
2023-01-18T05:09:38.328Z,1.90
2023-01-18T05:10:01.118Z,1.90
2023-01-18T05:10:23.878Z,1.90
2023-01-18T05:10:46.596Z,1.90
2023-01-18T05:11:10.874Z,1.90
2023-01-18T05:11:33.614Z,1.90
2023-01-18T05:11:56.268Z,1.90
2023-01-18T05:12:19.994Z,1.90
2023-01-18T05:12:43.063Z,1.90
2023-01-18T05:13:06.054Z,1.90
2023-01-18T05:13:28.753Z,1.90
2023-01-18T05:13:51.534Z,1.90
2023-01-18T05:14:14.353Z,1.90
2023-01-18T05:14:37.132Z,1.80
2023-01-18T05:14:59.953Z,1.80
2023-01-18T05:15:22.714Z,1.80
2023-01-18T05:15:46.888Z,1.80
2023-01-18T05:16:13.716Z,1.80
2023-01-18T05:16:36.518Z,1.80
2023-01-18T05:16:59.504Z,1.70
2023-01-18T05:17:24.647Z,1.70
2023-01-18T05:17:47.374Z,1.70
2023-01-18T05:18:10.149Z,1.70
2023-01-18T05:18:32.935Z,1.70
2023-01-18T05:18:57.745Z,1.70
2023-01-18T05:19:20.513Z,1.70
2023-01-18T05:19:43.223Z,1.70
2023-01-18T05:20:08.829Z,1.80
2023-01-18T05:20:32.650Z,1.80
2023-01-18T05:20:55.323Z,1.80
2023-01-18T05:21:18.062Z,1.80
2023-01-18T05:21:41.595Z,1.80
2023-01-18T05:22:04.344Z,1.80
2023-01-18T05:22:28.123Z,1.80
2023-01-18T05:22:50.846Z,1.90
2023-01-18T05:23:14.737Z,1.80
2023-01-18T05:23:39.053Z,1.90
2023-01-18T05:24:01.765Z,1.80
2023-01-18T05:24:24.519Z,1.80
2023-01-18T05:24:47.248Z,1.80
2023-01-18T05:25:10.249Z,1.80
2023-01-18T05:25:33.026Z,1.80
2023-01-18T05:25:56.168Z,1.80
2023-01-18T05:26:22.795Z,1.80
2023-01-18T05:26:45.627Z,1.80
2023-01-18T05:27:08.391Z,1.80
2023-01-18T05:27:31.099Z,1.80
2023-01-18T05:27:53.792Z,1.80
2023-01-18T05:28:16.497Z,1.80
2023-01-18T05:28:39.215Z,1.80
2023-01-18T05:29:01.946Z,1.80
2023-01-18T05:29:25.180Z,1.80
2023-01-18T05:29:48.558Z,1.70
2023-01-18T05:30:11.671Z,1.70
2023-01-18T05:30:40.496Z,1.80
2023-01-18T05:31:05.675Z,1.80
2023-01-18T05:31:28.471Z,1.70
2023-01-18T05:31:52.519Z,1.80
2023-01-18T05:32:15.242Z,1.70
2023-01-18T05:32:37.949Z,1.80
2023-01-18T05:33:01.944Z,1.70
2023-01-18T05:33:24.634Z,1.70
2023-01-18T05:33:47.355Z,1.70
2023-01-18T05:34:12.605Z,1.70
2023-01-18T05:34:35.389Z,1.70
2023-01-18T05:34:58.023Z,1.80
2023-01-18T05:35:20.796Z,1.80
2023-01-18T05:35:48.694Z,1.80
2023-01-18T05:36:12.014Z,1.80
2023-01-18T05:36:34.625Z,1.80
2023-01-18T05:36:57.321Z,1.80
2023-01-18T05:37:20.123Z,1.90
2023-01-18T05:37:42.825Z,1.90
2023-01-18T05:38:08.806Z,1.90
2023-01-18T05:38:31.511Z,1.90